createdAt,value
2022-11-30T00:05:20.172Z,95863.81
2022-11-30T00:10:50.417Z,95866.73
2022-11-30T00:13:39.648Z,95871.50
2022-11-30T00:19:11.770Z,95866.27
2022-11-30T00:25:01.550Z,95864.26
2022-11-30T00:30:59.622Z,95855.80
2022-11-30T00:33:48.213Z,95856.52
2022-11-30T00:39:31.045Z,95865.83
2022-11-30T00:42:17.467Z,95861.28
2022-11-30T00:47:55.587Z,95869.27
2022-11-30T00:50:44.669Z,95864.28
2022-11-30T00:53:33.457Z,95860.19
2022-11-30T00:59:11.205Z,95862.80
2022-11-30T01:01:59.286Z,95863.08
2022-11-30T01:07:36.142Z,95864.13
2022-11-30T01:13:09.812Z,95866.08
2022-11-30T01:18:40.802Z,95863.09
2022-11-30T01:26:56.697Z,95870.94
2022-11-30T01:29:45.393Z,95872.99
2022-11-30T01:38:10.463Z,95877.45
2022-11-30T02:03:31.960Z,95879.06
2022-11-30T02:06:23.071Z,95883.25
2022-11-30T02:23:55.435Z,95884.42
2022-11-30T02:32:22.047Z,95885.87
2022-11-30T02:35:11.338Z,95889.82
2022-11-30T02:38:01.837Z,95890.70
2022-11-30T02:40:50.260Z,95881.52
2022-11-30T02:52:03.404Z,95878.39
2022-11-30T02:54:51.633Z,95881.00
2022-11-30T03:00:26.023Z,95874.59
2022-11-30T03:03:14.448Z,95881.94
2022-11-30T03:08:50.496Z,95886.35
2022-11-30T03:14:29.636Z,95888.20
2022-11-30T03:19:55.895Z,95884.72
2022-11-30T03:25:24.081Z,95891.01
2022-11-30T03:33:37.751Z,95895.78
2022-11-30T03:39:15.527Z,95891.74
2022-11-30T03:44:43.419Z,95896.47
2022-11-30T03:50:18.335Z,95890.83
2022-11-30T03:56:07.715Z,95890.36
2022-11-30T04:01:40.914Z,95890.05
2022-11-30T04:04:29.552Z,95889.14
2022-11-30T04:10:08.390Z,95894.88
2022-11-30T04:12:55.506Z,95890.33
2022-11-30T04:18:31.241Z,95895.13
2022-11-30T04:21:20.059Z,95891.86
2022-11-30T04:26:55.219Z,95890.14
2022-11-30T04:29:46.707Z,95893.02
2022-11-30T04:35:22.147Z,95891.30
2022-11-30T04:40:58.494Z,95885.19
2022-11-30T04:43:48.242Z,95887.51
2022-11-30T04:46:37.029Z,95893.28
2022-11-30T04:49:28.277Z,95893.95
2022-11-30T04:55:04.182Z,95884.27
2022-11-30T04:57:52.808Z,95887.09
2022-11-30T05:03:27.229Z,95882.66
2022-11-30T05:08:58.421Z,95884.84
2022-11-30T05:14:34.050Z,95884.23
2022-11-30T05:17:23.135Z,95883.98
2022-11-30T05:22:52.457Z,95881.73
2022-11-30T05:28:26.533Z,95889.53
2022-11-30T05:34:02.746Z,95891.63
2022-11-30T05:36:51.019Z,95890.31
2022-11-30T05:42:21.805Z,95886.84
2022-11-30T05:47:59.871Z,95891.84
2022-11-30T05:53:32.471Z,95895.61
2022-11-30T05:56:22.148Z,95893.20
2022-11-30T06:02:00.602Z,95890.07
2022-11-30T06:04:49.915Z,95890.22
2022-11-30T06:10:27.536Z,95886.03
2022-11-30T06:18:46.404Z,95886.06
2022-11-30T06:21:35.143Z,95887.80
2022-11-30T06:27:02.918Z,95888.22
2022-11-30T06:32:35.740Z,95894.00
2022-11-30T06:38:04.445Z,95892.30
2022-11-30T06:43:40.589Z,95892.02
2022-11-30T06:46:36.684Z,95898.64
2022-11-30T06:52:11.935Z,95903.13
2022-11-30T06:57:54.935Z,95897.69
2022-11-30T07:03:32.196Z,95896.41
2022-11-30T07:09:01.941Z,95896.00
2022-11-30T07:11:51.244Z,95896.00
2022-11-30T07:17:25.817Z,95904.64
2022-11-30T07:23:02.176Z,95911.52
2022-11-30T07:26:09.200Z,95912.73
2022-11-30T07:31:48.680Z,95905.60
2022-11-30T07:37:23.772Z,95902.51
2022-11-30T07:42:59.026Z,95895.09
2022-11-30T07:51:22.717Z,95894.84
2022-11-30T07:56:58.629Z,95902.27
2022-11-30T07:59:47.544Z,95904.10
2022-11-30T08:02:35.943Z,95907.84
2022-11-30T08:08:12.283Z,95915.68
2022-11-30T08:13:48.358Z,95915.41
2022-11-30T08:22:04.413Z,95919.23
2022-11-30T08:24:52.899Z,95924.41
2022-11-30T08:30:25.228Z,95924.66
2022-11-30T08:36:09.594Z,95936.55
2022-11-30T08:41:46.963Z,95936.19
2022-11-30T08:44:36.576Z,95948.16
2022-11-30T08:50:17.173Z,95947.70
2022-11-30T08:55:47.287Z,95949.83
2022-11-30T09:01:21.324Z,95944.93
2022-11-30T09:09:44.070Z,95955.63
2022-11-30T09:15:28.967Z,95953.94
2022-11-30T09:18:16.905Z,95960.35
2022-11-30T09:23:46.765Z,95974.78
2022-11-30T09:29:22.858Z,95965.09
2022-11-30T09:34:53.031Z,95958.78
2022-11-30T09:40:24.113Z,95961.73
2022-11-30T09:45:58.410Z,95965.31
2022-11-30T09:54:32.086Z,95955.53
2022-11-30T09:57:27.058Z,95953.00
2022-11-30T10:05:47.954Z,95952.75
2022-11-30T10:11:42.604Z,95944.88
2022-11-30T10:15:07.935Z,95946.56
2022-11-30T10:20:55.238Z,95947.80
2022-11-30T10:26:40.083Z,95947.22
2022-11-30T10:32:18.105Z,95944.74
2022-11-30T10:40:56.975Z,95946.37
2022-11-30T10:43:47.351Z,95950.88
2022-11-30T10:49:23.369Z,95946.03
2022-11-30T10:55:04.927Z,95944.73
2022-11-30T11:00:43.488Z,95937.05
2022-11-30T11:06:24.747Z,95930.44
2022-11-30T11:15:20.640Z,95926.73
2022-11-30T11:21:07.496Z,95921.73
2022-11-30T11:26:39.134Z,95935.50
2022-11-30T11:29:32.844Z,95932.01
2022-11-30T11:35:46.697Z,95937.09
2022-11-30T11:41:34.624Z,95933.70
2022-11-30T11:44:25.772Z,95932.51
2022-11-30T11:47:27.228Z,95935.01
2022-11-30T11:51:05.071Z,95938.71
2022-11-30T11:56:14.951Z,95930.23
2022-11-30T11:59:48.257Z,95930.88
2022-11-30T12:05:23.571Z,95919.63
2022-11-30T12:11:01.818Z,95925.19
2022-11-30T12:13:53.092Z,95930.02
2022-11-30T12:16:54.051Z,95931.23
2022-11-30T12:22:50.322Z,95927.73
2022-11-30T12:25:42.857Z,95926.96
2022-11-30T12:31:21.890Z,95924.11
2022-11-30T12:36:59.905Z,95918.95
2022-11-30T12:42:42.251Z,95920.56
2022-11-30T12:48:26.600Z,95921.25
2022-11-30T12:54:10.311Z,95914.36
2022-11-30T12:59:51.875Z,95915.59
2022-11-30T13:05:45.217Z,95910.52
2022-11-30T13:11:28.178Z,95913.38
2022-11-30T13:17:13.447Z,95920.25
2022-11-30T13:20:06.486Z,95918.06
2022-11-30T13:22:59.227Z,95911.53
2022-11-30T13:26:08.416Z,95915.17
2022-11-30T13:31:53.079Z,95917.95
2022-11-30T13:34:41.427Z,95919.78
2022-11-30T13:40:26.457Z,95909.13
2022-11-30T13:46:24.297Z,95921.27
2022-11-30T13:52:22.036Z,95922.52
2022-11-30T13:54:51.213Z,95925.58
2022-11-30T14:07:41.807Z,95928.73
2022-11-30T14:13:33.584Z,95936.03
2022-11-30T14:19:14.284Z,95930.56
2022-11-30T14:22:02.911Z,95930.14
2022-11-30T14:24:52.510Z,95937.48
2022-11-30T14:30:29.466Z,95943.13
2022-11-30T14:36:11.729Z,95944.73
2022-11-30T14:41:46.669Z,95942.19
2022-11-30T14:50:27.165Z,95942.43
2022-11-30T14:53:25.385Z,95957.07
2022-11-30T14:59:09.914Z,95945.49
2022-11-30T15:01:59.586Z,95942.43
2022-11-30T15:07:36.921Z,95954.37
2022-11-30T15:13:15.224Z,95950.36
2022-11-30T15:16:07.881Z,95948.23
2022-11-30T15:18:58.586Z,95944.97
2022-11-30T15:24:38.253Z,95947.66
2022-11-30T15:27:26.608Z,95948.74
2022-11-30T15:36:18.631Z,95951.70
2022-11-30T15:41:40.708Z,95954.40
2022-11-30T15:47:32.592Z,95957.61
2022-11-30T15:53:37.444Z,95958.17
2022-11-30T15:56:27.977Z,95958.89
2022-11-30T15:59:25.056Z,95958.58
2022-11-30T16:05:33.421Z,95962.04
2022-11-30T16:08:28.541Z,95958.01
2022-11-30T16:14:11.120Z,95963.70
2022-11-30T16:17:08.962Z,95965.89
2022-11-30T16:23:22.498Z,95972.30
2022-11-30T16:28:50.830Z,95975.63
2022-11-30T16:31:39.202Z,95981.79
2022-11-30T16:40:03.585Z,95989.14
2022-11-30T16:45:38.668Z,95991.09
2022-11-30T16:51:19.062Z,95986.81
2022-11-30T16:54:09.164Z,95985.53
2022-11-30T17:02:31.874Z,95998.03
2022-11-30T17:08:10.420Z,96001.02
2022-11-30T17:10:58.572Z,95997.81
2022-11-30T17:16:29.198Z,95992.05
2022-11-30T17:19:18.140Z,95999.33
2022-11-30T17:27:37.379Z,95997.48
2022-11-30T17:33:07.943Z,96005.45
2022-11-30T17:38:45.236Z,96014.13
2022-11-30T17:44:21.133Z,96021.33
2022-11-30T17:47:10.039Z,96020.50
2022-11-30T17:49:58.923Z,96023.46
2022-11-30T17:52:47.065Z,96022.69
2022-11-30T17:55:35.523Z,96018.36
2022-11-30T18:01:07.360Z,96023.23
2022-11-30T18:06:41.170Z,96032.93
2022-11-30T18:15:00.673Z,96036.91
2022-11-30T18:20:40.442Z,96042.77
2022-11-30T18:26:29.080Z,96050.00
2022-11-30T18:31:59.565Z,96056.59
2022-11-30T18:37:33.287Z,96051.75
2022-11-30T18:43:07.584Z,96060.86
2022-11-30T18:48:43.218Z,96063.80
2022-11-30T18:54:20.083Z,96064.06
2022-11-30T19:02:41.829Z,96060.05
2022-11-30T19:08:17.347Z,96068.59
2022-11-30T19:16:47.369Z,96073.50
2022-11-30T19:22:37.823Z,96065.22
2022-11-30T19:25:26.057Z,96065.45
2022-11-30T19:28:18.917Z,96066.77
2022-11-30T19:34:17.382Z,96070.32
2022-11-30T19:37:27.525Z,96076.50
2022-11-30T19:46:27.194Z,96068.02
2022-11-30T19:49:16.923Z,96067.72
2022-11-30T19:59:37.106Z,96068.01
2022-11-30T20:05:26.966Z,96067.52
2022-11-30T20:11:21.651Z,96066.11
2022-11-30T20:34:57.045Z,96061.02
2022-11-30T20:40:43.520Z,96048.20
2022-11-30T20:46:27.838Z,96045.63
2022-11-30T20:52:13.968Z,96054.20
2022-11-30T20:55:09.537Z,96048.31
2022-11-30T21:01:24.525Z,96045.25
2022-11-30T21:07:33.660Z,96053.20
2022-11-30T21:13:23.273Z,96051.81
2022-11-30T21:16:12.108Z,96049.22
2022-11-30T21:19:01.926Z,96054.36
2022-11-30T21:24:39.832Z,96055.48
2022-11-30T21:30:14.604Z,96059.45
2022-11-30T21:35:53.180Z,96066.17
2022-11-30T21:41:34.365Z,96052.36
2022-11-30T21:47:18.276Z,96060.50
2022-11-30T21:50:10.646Z,96067.19
2022-11-30T21:55:47.846Z,96072.31
2022-11-30T21:58:37.605Z,96066.97
2022-11-30T22:01:28.547Z,96066.11
2022-11-30T22:04:38.920Z,96058.11
2022-11-30T22:07:32.269Z,96063.66
2022-11-30T22:10:36.564Z,96067.19
2022-11-30T22:16:35.786Z,96064.16
2022-11-30T22:22:42.519Z,96065.55
2022-11-30T22:28:19.489Z,96069.52
2022-11-30T22:33:56.719Z,96064.16
2022-11-30T22:39:47.349Z,96058.84
2022-11-30T22:42:38.043Z,96062.05
2022-11-30T22:45:27.011Z,96057.21
2022-11-30T22:50:56.512Z,96049.17
2022-11-30T22:53:45.632Z,96044.11
2022-11-30T22:59:16.324Z,96050.30
2022-11-30T23:02:05.659Z,96050.81
2022-11-30T23:04:54.595Z,96056.75
2022-11-30T23:10:26.265Z,96046.06
2022-11-30T23:13:14.683Z,96043.45
2022-11-30T23:18:46.010Z,96046.34
2022-11-30T23:21:40.995Z,96049.61
2022-11-30T23:24:25.886Z,96046.67
2022-11-30T23:27:15.930Z,96051.48
2022-11-30T23:30:05.931Z,96046.44
2022-11-30T23:35:45.807Z,96039.22
2022-11-30T23:41:17.268Z,96039.45
2022-11-30T23:49:37.047Z,96037.29
2022-11-30T23:55:22.649Z,96030.63
